createdAt,value
2023-03-31T00:01:14.593Z,97263.73
2023-03-31T00:03:44.853Z,97259.40
2023-03-31T00:06:18.910Z,97258.92
2023-03-31T00:08:52.590Z,97258.79
2023-03-31T00:11:23.867Z,97258.30
2023-03-31T00:13:51.924Z,97257.99
2023-03-31T00:16:20.032Z,97256.61
2023-03-31T00:18:51.281Z,97254.38
2023-03-31T00:21:25.819Z,97252.52
2023-03-31T00:23:59.128Z,97251.34
2023-03-31T00:26:28.183Z,97248.26
2023-03-31T00:28:57.215Z,97252.10
2023-03-31T00:31:27.368Z,97251.27
2023-03-31T00:33:56.660Z,97251.34
2023-03-31T00:36:28.743Z,97248.47
2023-03-31T00:39:02.817Z,97240.39
2023-03-31T00:41:31.196Z,97231.95
2023-03-31T00:44:14.826Z,97228.76
2023-03-31T00:46:45.855Z,97222.13
2023-03-31T00:49:47.641Z,97214.23
2023-03-31T00:52:21.795Z,97201.48
2023-03-31T00:54:55.830Z,97198.77
2023-03-31T00:57:26.332Z,97199.88
2023-03-31T01:00:00.210Z,97192.80
2023-03-31T01:02:29.143Z,97183.83
2023-03-31T01:05:02.333Z,97175.55
2023-03-31T01:07:41.487Z,97168.29
2023-03-31T01:10:11.114Z,97159.66
2023-03-31T01:12:44.389Z,97158.99
2023-03-31T01:15:12.799Z,97151.55
2023-03-31T01:17:45.185Z,97145.20
2023-03-31T01:20:55.843Z,97140.40
2023-03-31T01:24:05.367Z,97135.59
2023-03-31T01:26:42.409Z,97128.73
2023-03-31T01:29:44.352Z,97124.77
2023-03-31T01:32:38.451Z,97120.64
2023-03-31T01:35:38.517Z,97114.61
2023-03-31T01:38:34.806Z,97107.35
2023-03-31T01:41:40.591Z,97103.40
2023-03-31T01:44:21.211Z,97100.11
2023-03-31T01:47:22.984Z,97099.77
2023-03-31T01:50:06.005Z,97101.33
2023-03-31T01:52:56.275Z,97102.20
2023-03-31T01:55:41.714Z,97098.92
2023-03-31T01:58:16.199Z,97094.42
2023-03-31T02:00:57.191Z,97093.41
2023-03-31T02:03:33.251Z,97092.03
2023-03-31T02:06:10.563Z,97091.70
2023-03-31T02:08:48.465Z,97094.82
2023-03-31T02:11:17.116Z,97085.84
2023-03-31T02:13:47.542Z,97087.08
2023-03-31T02:16:24.646Z,97075.83
2023-03-31T02:19:02.624Z,97073.20
2023-03-31T02:21:34.447Z,97070.59
2023-03-31T02:24:11.256Z,97063.29
2023-03-31T02:26:52.377Z,97074.14
2023-03-31T02:29:21.416Z,97076.36
2023-03-31T02:32:12.820Z,97064.06
2023-03-31T02:34:40.929Z,97070.46
2023-03-31T02:37:08.940Z,97073.59
2023-03-31T02:39:41.339Z,97059.21
2023-03-31T02:42:09.741Z,97045.35
2023-03-31T02:44:40.106Z,97046.02
2023-03-31T02:47:12.158Z,97052.05
2023-03-31T02:49:48.765Z,97046.86
2023-03-31T02:52:23.902Z,97042.02
2023-03-31T02:54:55.188Z,97044.30
2023-03-31T02:57:58.430Z,97046.94
2023-03-31T03:00:49.805Z,97041.09
2023-03-31T03:03:52.262Z,97046.64
2023-03-31T03:06:44.339Z,97047.21
2023-03-31T03:09:30.625Z,97051.39
2023-03-31T03:12:04.778Z,97050.22
2023-03-31T03:14:49.507Z,97050.77
2023-03-31T03:17:26.061Z,97049.45
2023-03-31T03:19:57.130Z,97047.27
2023-03-31T03:22:25.409Z,97052.52
2023-03-31T03:24:53.704Z,97055.52
2023-03-31T03:27:24.582Z,97055.22
2023-03-31T03:29:52.567Z,97057.30
2023-03-31T03:32:20.542Z,97057.67
2023-03-31T03:34:48.745Z,97060.30
2023-03-31T03:37:16.714Z,97062.02
2023-03-31T03:39:44.722Z,97061.16
2023-03-31T03:42:12.953Z,97064.80
2023-03-31T03:44:40.821Z,97066.88
2023-03-31T03:47:08.824Z,97072.23
2023-03-31T03:49:36.794Z,97072.58
2023-03-31T03:52:04.939Z,97070.69
2023-03-31T03:54:33.010Z,97070.36
2023-03-31T03:57:01.178Z,97070.55
2023-03-31T03:59:29.152Z,97064.69
2023-03-31T04:01:57.202Z,97072.80
2023-03-31T04:04:25.182Z,97072.63
2023-03-31T04:06:53.129Z,97065.15
2023-03-31T04:09:21.079Z,97063.40
2023-03-31T04:11:49.069Z,97047.27
2023-03-31T04:14:17.153Z,97046.39
2023-03-31T04:16:47.071Z,97044.46
2023-03-31T04:19:17.868Z,97039.76
2023-03-31T04:21:46.019Z,97037.45
2023-03-31T04:24:21.840Z,97034.14
2023-03-31T04:26:59.910Z,97029.62
2023-03-31T04:29:28.115Z,97030.81
2023-03-31T04:31:59.680Z,97024.73
2023-03-31T04:34:35.439Z,97026.09
2023-03-31T04:37:04.814Z,97021.91
2023-03-31T04:39:32.959Z,97021.73
2023-03-31T04:42:01.544Z,97019.82
2023-03-31T04:44:29.904Z,97016.18
2023-03-31T04:46:59.120Z,97012.73
2023-03-31T04:49:27.116Z,97007.38
2023-03-31T04:51:55.421Z,97009.48
2023-03-31T04:54:23.502Z,97006.00
2023-03-31T04:56:51.694Z,97002.20
2023-03-31T04:59:19.792Z,97005.39
2023-03-31T05:01:48.268Z,97008.55
2023-03-31T05:04:16.296Z,97007.70
2023-03-31T05:06:44.440Z,97002.52
2023-03-31T05:09:12.560Z,97003.23
2023-03-31T05:11:40.700Z,97003.42
2023-03-31T05:14:08.655Z,97004.27
2023-03-31T05:16:37.201Z,97005.85
2023-03-31T05:19:05.857Z,97005.52
2023-03-31T05:21:34.165Z,97006.18
2023-03-31T05:24:02.163Z,97003.02
2023-03-31T05:26:31.118Z,97003.66
2023-03-31T05:28:59.158Z,97007.97
2023-03-31T05:31:27.554Z,97006.23
2023-03-31T05:33:55.712Z,97008.66
2023-03-31T05:36:23.965Z,97014.01
2023-03-31T05:38:52.659Z,97011.20
2023-03-31T05:41:21.091Z,97008.23
2023-03-31T05:43:49.695Z,97006.69
2023-03-31T05:46:18.691Z,97013.27
2023-03-31T05:48:47.314Z,97017.26
2023-03-31T05:51:15.468Z,97016.05
2023-03-31T05:53:44.614Z,97020.20
2023-03-31T05:56:13.844Z,97022.96
2023-03-31T05:58:42.121Z,97023.81
2023-03-31T06:01:13.873Z,97028.63
2023-03-31T06:03:50.093Z,97026.20
2023-03-31T06:06:18.498Z,97022.35
2023-03-31T06:08:47.531Z,97024.36
2023-03-31T06:11:19.513Z,97017.89
2023-03-31T06:13:48.865Z,97021.11
2023-03-31T06:16:17.956Z,97026.40
2023-03-31T06:18:46.478Z,97027.02
2023-03-31T06:21:17.541Z,97021.25
2023-03-31T06:23:46.388Z,97015.11
2023-03-31T06:26:17.885Z,97016.05
2023-03-31T06:28:47.195Z,97016.65
2023-03-31T06:31:18.680Z,97013.98
2023-03-31T06:33:48.109Z,97008.78
2023-03-31T06:36:19.015Z,97010.28
2023-03-31T06:38:48.329Z,97000.38
2023-03-31T06:41:21.038Z,97016.34
2023-03-31T06:43:50.115Z,97009.85
2023-03-31T06:46:18.993Z,97012.95
2023-03-31T06:48:47.834Z,97017.17
2023-03-31T06:51:16.724Z,97015.17
2023-03-31T06:53:45.100Z,97021.83
2023-03-31T06:56:13.736Z,97016.95
2023-03-31T06:58:42.361Z,97020.68
2023-03-31T07:01:12.090Z,97023.06
2023-03-31T07:03:40.787Z,97021.17
2023-03-31T07:06:09.565Z,97020.16
2023-03-31T07:08:37.953Z,97011.20
2023-03-31T07:11:06.478Z,97010.81
2023-03-31T07:13:35.260Z,97009.64
2023-03-31T07:16:05.620Z,97005.35
2023-03-31T07:18:35.596Z,97009.55
2023-03-31T07:21:08.176Z,97009.75
2023-03-31T07:23:38.528Z,97010.88
2023-03-31T07:26:07.332Z,97009.30
2023-03-31T07:28:36.039Z,97010.88
2023-03-31T07:31:12.070Z,97013.31
2023-03-31T07:33:41.692Z,97016.77
2023-03-31T07:36:13.368Z,97018.52
2023-03-31T07:38:47.210Z,97017.91
2023-03-31T07:41:19.082Z,97016.98
2023-03-31T07:43:49.026Z,97013.46
2023-03-31T07:46:26.519Z,97014.44
2023-03-31T07:48:59.108Z,97017.25
2023-03-31T07:51:28.393Z,97018.23
2023-03-31T07:53:57.082Z,97015.73
2023-03-31T07:56:26.582Z,97015.45
2023-03-31T07:58:57.710Z,97020.00
2023-03-31T08:01:29.178Z,97022.27
2023-03-31T08:03:59.298Z,97022.95
2023-03-31T08:06:30.267Z,97025.64
2023-03-31T08:08:59.748Z,97017.63
2023-03-31T08:11:29.412Z,97022.31
2023-03-31T08:13:58.596Z,97027.61
2023-03-31T08:16:27.393Z,97025.63
2023-03-31T08:18:55.901Z,97024.73
2023-03-31T08:21:24.836Z,97023.38
2023-03-31T08:23:56.076Z,97022.09
2023-03-31T08:26:25.835Z,97022.64
2023-03-31T08:28:54.500Z,97021.08
2023-03-31T08:31:26.729Z,97019.87
2023-03-31T08:33:57.689Z,97023.60
2023-03-31T08:36:27.815Z,97025.21
2023-03-31T08:38:56.361Z,97025.33
2023-03-31T08:41:28.298Z,97026.50
2023-03-31T08:43:59.310Z,97027.71
2023-03-31T08:46:33.838Z,97026.95
2023-03-31T08:49:05.000Z,97021.98
2023-03-31T08:51:42.439Z,97014.88
2023-03-31T08:54:40.403Z,97009.27
2023-03-31T08:57:24.505Z,97008.70
2023-03-31T08:59:53.073Z,97004.21
2023-03-31T09:02:24.756Z,97007.27
2023-03-31T09:05:01.149Z,97004.76
2023-03-31T09:08:02.787Z,97004.33
2023-03-31T09:10:52.334Z,97002.57
2023-03-31T09:13:26.688Z,97005.82
2023-03-31T09:16:22.947Z,97006.93
2023-03-31T09:18:55.643Z,97004.63
2023-03-31T09:21:46.143Z,97002.23
2023-03-31T09:24:28.647Z,96998.96
2023-03-31T09:27:05.516Z,96997.18
2023-03-31T09:29:50.576Z,97001.87
2023-03-31T09:32:26.122Z,96997.67
2023-03-31T09:35:22.375Z,96997.30
2023-03-31T09:37:52.990Z,96998.46
2023-03-31T09:40:28.207Z,96993.83
2023-03-31T09:43:07.319Z,96995.11
2023-03-31T09:45:37.069Z,96986.36
2023-03-31T09:48:15.036Z,96986.14
2023-03-31T09:51:08.338Z,96989.27
2023-03-31T09:53:43.790Z,96976.60
2023-03-31T09:56:12.222Z,96974.33
2023-03-31T09:58:43.051Z,96971.45
2023-03-31T10:01:14.401Z,96974.08
2023-03-31T10:03:55.046Z,96967.06
2023-03-31T10:06:26.136Z,96961.36
2023-03-31T10:09:03.731Z,96949.73
2023-03-31T10:11:32.500Z,96945.17
2023-03-31T10:14:16.615Z,96944.80
2023-03-31T10:16:50.509Z,96939.35
2023-03-31T10:19:18.708Z,96938.86
2023-03-31T10:21:55.816Z,96936.92
2023-03-31T10:24:24.559Z,96932.27
2023-03-31T10:26:55.962Z,96930.20
2023-03-31T10:29:35.153Z,96931.83
2023-03-31T10:32:20.463Z,96930.04
2023-03-31T10:34:49.325Z,96926.72
2023-03-31T10:37:22.825Z,96925.89
2023-03-31T10:40:20.642Z,96923.89
2023-03-31T10:43:03.728Z,96921.56
2023-03-31T10:45:42.159Z,96916.82
2023-03-31T10:48:32.275Z,96909.17
2023-03-31T10:51:27.802Z,96909.88
2023-03-31T10:54:06.680Z,96901.49
2023-03-31T10:56:38.388Z,96899.77
2023-03-31T10:59:17.145Z,96899.02
2023-03-31T11:02:24.721Z,96900.37
2023-03-31T11:05:05.904Z,96895.99
2023-03-31T11:08:00.019Z,96894.24
2023-03-31T11:10:59.870Z,96889.97
2023-03-31T11:13:38.954Z,96888.79
2023-03-31T11:16:07.211Z,96883.17
2023-03-31T11:18:57.325Z,96884.43
2023-03-31T11:21:58.645Z,96886.19
2023-03-31T11:24:52.322Z,96881.99
2023-03-31T11:27:57.772Z,96877.63
2023-03-31T11:30:48.819Z,96871.27
2023-03-31T11:33:30.186Z,96864.88
2023-03-31T11:36:22.557Z,96864.02
2023-03-31T11:39:12.550Z,96861.14
2023-03-31T11:41:49.884Z,96855.57
2023-03-31T11:44:21.481Z,96856.05
2023-03-31T11:46:55.084Z,96857.60
2023-03-31T11:49:27.885Z,96854.65
2023-03-31T11:52:03.349Z,96848.09
2023-03-31T11:54:38.258Z,96841.81
2023-03-31T11:57:36.168Z,96839.17
2023-03-31T12:00:14.102Z,96836.11
2023-03-31T12:02:53.838Z,96827.80
2023-03-31T12:05:26.031Z,96826.28
2023-03-31T12:08:03.321Z,96822.60
2023-03-31T12:10:38.040Z,96816.10
2023-03-31T12:13:36.600Z,96808.15
2023-03-31T12:16:46.450Z,96808.37
2023-03-31T12:19:22.922Z,96802.23
2023-03-31T12:21:56.933Z,96794.98
2023-03-31T12:24:27.537Z,96798.05
2023-03-31T12:27:14.559Z,96801.88
2023-03-31T12:29:49.047Z,96795.45
2023-03-31T12:32:25.323Z,96789.55
2023-03-31T12:35:26.031Z,96789.92
2023-03-31T12:38:17.405Z,96789.95
2023-03-31T12:41:05.517Z,96782.49
2023-03-31T12:43:50.216Z,96780.89
2023-03-31T12:46:52.608Z,96783.98
2023-03-31T12:49:50.755Z,96787.82
2023-03-31T12:52:32.915Z,96779.77
2023-03-31T12:55:09.839Z,96774.89
2023-03-31T12:57:38.360Z,96771.53
2023-03-31T13:00:12.717Z,96767.20
2023-03-31T13:02:41.634Z,96768.84
2023-03-31T13:05:38.458Z,96761.45
2023-03-31T13:08:11.794Z,96749.89
2023-03-31T13:11:00.947Z,96755.13
2023-03-31T13:13:30.104Z,96754.29
2023-03-31T13:16:02.849Z,96750.45
2023-03-31T13:18:34.994Z,96742.91
2023-03-31T13:21:08.791Z,96747.20
2023-03-31T13:23:45.962Z,96744.99
2023-03-31T13:26:33.963Z,96739.41
2023-03-31T13:29:14.917Z,96738.24
2023-03-31T13:32:02.989Z,96737.64
2023-03-31T13:34:32.804Z,96736.45
2023-03-31T13:37:17.267Z,96736.48
2023-03-31T13:40:17.406Z,96728.55
2023-03-31T13:43:09.419Z,96731.14
2023-03-31T13:45:44.061Z,96732.05
2023-03-31T13:48:39.528Z,96729.61
2023-03-31T13:51:32.658Z,96725.37
2023-03-31T13:54:07.459Z,96722.71
2023-03-31T13:56:39.442Z,96722.07
2023-03-31T13:59:13.812Z,96723.10
2023-03-31T14:01:55.410Z,96723.42
2023-03-31T14:04:43.869Z,96722.36
2023-03-31T14:07:23.644Z,96729.61
2023-03-31T14:09:54.332Z,96726.19
2023-03-31T14:12:35.282Z,96725.83
2023-03-31T14:15:06.567Z,96723.95
2023-03-31T14:17:41.375Z,96721.59
2023-03-31T14:20:13.058Z,96720.99
2023-03-31T14:23:23.818Z,96722.05
2023-03-31T14:26:12.722Z,96720.58
2023-03-31T14:28:41.914Z,96716.06
2023-03-31T14:31:20.916Z,96716.01
2023-03-31T14:34:37.239Z,96705.88
2023-03-31T14:37:23.246Z,96700.80
2023-03-31T14:39:56.866Z,96706.48
2023-03-31T14:42:30.796Z,96712.55
2023-03-31T14:45:04.897Z,96718.39
2023-03-31T14:47:33.851Z,96713.39
2023-03-31T14:50:15.787Z,96720.13
2023-03-31T14:52:50.618Z,96715.80
2023-03-31T14:55:28.475Z,96713.55
2023-03-31T14:58:02.714Z,96715.30
2023-03-31T15:00:34.592Z,96717.52
2023-03-31T15:03:08.889Z,96719.09
2023-03-31T15:05:38.957Z,96717.30
2023-03-31T15:08:20.020Z,96717.77
2023-03-31T15:11:09.623Z,96722.75
2023-03-31T15:14:01.168Z,96727.33
2023-03-31T15:16:43.351Z,96726.29
2023-03-31T15:19:16.612Z,96722.60
2023-03-31T15:21:47.089Z,96719.23
2023-03-31T15:24:16.658Z,96715.95
2023-03-31T15:26:53.439Z,96719.34
2023-03-31T15:29:31.330Z,96720.90
2023-03-31T15:32:00.986Z,96713.48
2023-03-31T15:34:36.266Z,96710.11
2023-03-31T15:37:07.144Z,96712.20
2023-03-31T15:39:38.986Z,96712.60
2023-03-31T15:42:08.822Z,96706.84
2023-03-31T15:44:43.314Z,96698.20
2023-03-31T15:47:29.706Z,96693.96
2023-03-31T15:50:08.551Z,96691.46
2023-03-31T15:52:41.280Z,96685.42
2023-03-31T15:55:32.293Z,96678.02
2023-03-31T15:58:02.829Z,96674.99
2023-03-31T16:00:39.157Z,96669.80
2023-03-31T16:03:22.179Z,96668.38
2023-03-31T16:06:10.109Z,96672.30
2023-03-31T16:08:48.110Z,96677.91
2023-03-31T16:11:23.943Z,96681.70
2023-03-31T16:13:57.131Z,96687.41
2023-03-31T16:16:29.266Z,96689.59
2023-03-31T16:19:10.445Z,96688.44
2023-03-31T16:21:45.951Z,96691.16
2023-03-31T16:24:16.373Z,96692.58
2023-03-31T16:26:46.002Z,96692.02
2023-03-31T16:29:23.990Z,96690.80
2023-03-31T16:32:11.816Z,96693.36
2023-03-31T16:35:02.722Z,96694.12
2023-03-31T16:37:31.451Z,96700.65
2023-03-31T16:40:00.969Z,96700.90
2023-03-31T16:42:31.777Z,96697.69
2023-03-31T16:45:13.749Z,96692.80
2023-03-31T16:47:45.465Z,96691.27
2023-03-31T16:50:16.062Z,96691.03
2023-03-31T16:52:45.959Z,96695.71
2023-03-31T16:55:16.962Z,96694.55
2023-03-31T16:57:46.474Z,96697.61
2023-03-31T17:00:15.137Z,96696.15
2023-03-31T17:02:43.926Z,96698.06
2023-03-31T17:05:13.834Z,96692.66
2023-03-31T17:07:42.995Z,96693.55
2023-03-31T17:10:13.044Z,96699.56
2023-03-31T17:12:41.726Z,96698.84
2023-03-31T17:15:10.937Z,96694.97
2023-03-31T17:17:39.394Z,96696.66
2023-03-31T17:20:09.504Z,96694.15
2023-03-31T17:22:38.705Z,96686.54
2023-03-31T17:25:08.516Z,96679.80
2023-03-31T17:27:36.666Z,96678.77
2023-03-31T17:30:06.373Z,96682.14
2023-03-31T17:32:34.932Z,96680.98
2023-03-31T17:35:04.015Z,96676.67
2023-03-31T17:37:33.689Z,96672.56
2023-03-31T17:40:02.109Z,96671.72
2023-03-31T17:42:31.619Z,96666.16
2023-03-31T17:44:59.912Z,96665.16
2023-03-31T17:47:30.726Z,96667.08
2023-03-31T17:49:59.154Z,96667.91
2023-03-31T17:52:28.068Z,96670.45
2023-03-31T17:54:58.235Z,96662.20
2023-03-31T17:57:26.760Z,96661.30
2023-03-31T17:59:54.981Z,96656.31
2023-03-31T18:02:25.142Z,96657.29
2023-03-31T18:04:54.866Z,96660.04
2023-03-31T18:07:25.856Z,96665.05
2023-03-31T18:09:53.926Z,96667.96
2023-03-31T18:12:23.332Z,96663.76
2023-03-31T18:14:52.211Z,96666.30
2023-03-31T18:17:20.490Z,96666.60
2023-03-31T18:19:48.743Z,96667.73
2023-03-31T18:22:16.976Z,96670.08
2023-03-31T18:24:45.841Z,96660.41
2023-03-31T18:27:14.011Z,96657.34
2023-03-31T18:29:42.251Z,96659.13
2023-03-31T18:32:10.453Z,96655.88
2023-03-31T18:34:38.756Z,96658.35
2023-03-31T18:37:07.184Z,96665.73
2023-03-31T18:39:35.768Z,96664.09
2023-03-31T18:42:04.324Z,96661.25
2023-03-31T18:44:32.863Z,96658.42
2023-03-31T18:47:02.351Z,96658.53
2023-03-31T18:49:32.227Z,96659.61
2023-03-31T18:52:02.636Z,96654.92
2023-03-31T18:54:31.413Z,96644.00
2023-03-31T18:57:01.797Z,96639.83
2023-03-31T18:59:30.302Z,96644.05
2023-03-31T19:01:58.590Z,96648.45
2023-03-31T19:04:27.685Z,96646.40
2023-03-31T19:06:57.337Z,96636.85
2023-03-31T19:09:28.157Z,96632.52
2023-03-31T19:11:57.771Z,96637.88
2023-03-31T19:14:27.386Z,96634.88
2023-03-31T19:16:55.678Z,96632.42
2023-03-31T19:19:25.835Z,96636.70
2023-03-31T19:21:54.585Z,96632.09
2023-03-31T19:24:24.416Z,96629.36
2023-03-31T19:26:53.232Z,96628.42
2023-03-31T19:29:21.493Z,96626.80
2023-03-31T19:31:49.822Z,96625.09
2023-03-31T19:34:18.181Z,96626.27
2023-03-31T19:36:46.539Z,96627.66
2023-03-31T19:39:14.808Z,96624.84
2023-03-31T19:41:43.329Z,96621.81
2023-03-31T19:44:11.733Z,96617.34
2023-03-31T19:46:40.097Z,96611.28
2023-03-31T19:49:08.208Z,96609.58
2023-03-31T19:51:36.676Z,96602.11
2023-03-31T19:54:04.849Z,96597.13
2023-03-31T19:56:33.733Z,96592.46
2023-03-31T19:59:02.945Z,96590.92
2023-03-31T20:01:32.832Z,96592.90
2023-03-31T20:04:01.588Z,96589.64
2023-03-31T20:06:32.003Z,96586.15
2023-03-31T20:09:01.868Z,96580.73
2023-03-31T20:11:31.145Z,96575.10
2023-03-31T20:13:59.737Z,96572.09
2023-03-31T20:16:29.923Z,96571.50
2023-03-31T20:19:01.600Z,96566.08
2023-03-31T20:21:32.174Z,96560.74
2023-03-31T20:24:00.442Z,96557.95
2023-03-31T20:26:30.926Z,96551.17
2023-03-31T20:29:02.755Z,96546.23
2023-03-31T20:31:34.266Z,96544.71
2023-03-31T20:34:02.587Z,96543.54
2023-03-31T20:36:32.107Z,96540.30
2023-03-31T20:39:04.312Z,96534.94
2023-03-31T20:41:34.914Z,96530.73
2023-03-31T20:44:05.063Z,96532.08
2023-03-31T20:46:34.827Z,96529.23
2023-03-31T20:49:03.285Z,96527.54
2023-03-31T20:51:33.801Z,96523.69
2023-03-31T20:54:02.059Z,96523.20
2023-03-31T20:56:33.678Z,96520.31
2023-03-31T20:59:02.168Z,96520.69
2023-03-31T21:01:33.470Z,96516.39
2023-03-31T21:04:03.227Z,96516.08
2023-03-31T21:06:46.206Z,96516.10
2023-03-31T21:09:15.655Z,96513.22
2023-03-31T21:11:44.352Z,96514.63
2023-03-31T21:14:16.992Z,96509.52
2023-03-31T21:16:45.401Z,96504.05
2023-03-31T21:19:13.840Z,96499.48
2023-03-31T21:21:43.349Z,96499.83
2023-03-31T21:24:13.475Z,96498.04
2023-03-31T21:26:42.281Z,96492.98
2023-03-31T21:29:10.421Z,96489.58
2023-03-31T21:31:39.054Z,96484.24
2023-03-31T21:34:07.388Z,96478.17
2023-03-31T21:36:35.703Z,96469.65
2023-03-31T21:39:05.258Z,96463.04
2023-03-31T21:41:33.435Z,96457.17
2023-03-31T21:44:02.806Z,96453.18
2023-03-31T21:46:33.540Z,96452.98
2023-03-31T21:49:02.941Z,96448.29
2023-03-31T21:51:31.756Z,96449.05
2023-03-31T21:53:59.815Z,96447.41
2023-03-31T21:56:28.535Z,96445.16
2023-03-31T21:59:01.584Z,96440.06
2023-03-31T22:01:31.557Z,96436.20
2023-03-31T22:04:00.570Z,96439.20
2023-03-31T22:06:29.108Z,96436.05
2023-03-31T22:08:57.162Z,96433.11
2023-03-31T22:11:25.260Z,96433.54
2023-03-31T22:13:53.510Z,96435.54
2023-03-31T22:16:23.644Z,96434.59
2023-03-31T22:18:53.009Z,96432.62
2023-03-31T22:21:24.876Z,96432.49
2023-03-31T22:23:56.077Z,96432.34
2023-03-31T22:26:26.236Z,96430.27
2023-03-31T22:28:55.111Z,96426.62
2023-03-31T22:31:23.773Z,96425.08
2023-03-31T22:33:53.285Z,96430.33
2023-03-31T22:36:21.374Z,96433.65
2023-03-31T22:38:49.518Z,96428.97
2023-03-31T22:41:17.747Z,96428.66
2023-03-31T22:43:46.406Z,96427.11
2023-03-31T22:46:16.035Z,96426.75
2023-03-31T22:48:48.878Z,96425.23
2023-03-31T22:51:17.585Z,96424.59
2023-03-31T22:53:53.008Z,96423.98
2023-03-31T22:56:23.299Z,96425.11
2023-03-31T22:58:52.553Z,96426.98
2023-03-31T23:01:21.779Z,96431.23
2023-03-31T23:03:50.534Z,96431.67
2023-03-31T23:06:18.704Z,96430.77
2023-03-31T23:08:49.155Z,96429.58
2023-03-31T23:11:18.968Z,96430.77
2023-03-31T23:13:47.638Z,96429.89
2023-03-31T23:16:27.426Z,96422.77
2023-03-31T23:18:56.115Z,96416.09
2023-03-31T23:21:27.415Z,96417.59
2023-03-31T23:23:58.799Z,96413.73
2023-03-31T23:26:28.184Z,96407.52
2023-03-31T23:28:57.905Z,96403.39
2023-03-31T23:31:29.220Z,96395.54
2023-03-31T23:33:59.323Z,96389.58
2023-03-31T23:36:27.576Z,96384.38
2023-03-31T23:38:56.776Z,96380.93
2023-03-31T23:41:26.559Z,96377.10
2023-03-31T23:43:58.205Z,96368.94
2023-03-31T23:46:27.385Z,96365.44
2023-03-31T23:48:55.922Z,96361.20
2023-03-31T23:51:24.515Z,96357.21
2023-03-31T23:53:53.150Z,96353.62
2023-03-31T23:56:21.893Z,96346.67
2023-03-31T23:58:50.121Z,96341.75
